sensor_id;sensor_type;location;lat;lon;timestamp;temperature;humidity
37285;DHT22;23172;53.550;9.964;2023-03-14T00:02:08;12.60;96.70
37285;DHT22;23172;53.550;9.964;2023-03-14T00:07:11;12.60;96.80
37285;DHT22;23172;53.550;9.964;2023-03-14T00:12:13;12.60;96.90
37285;DHT22;23172;53.550;9.964;2023-03-14T00:17:17;12.60;97.00
37285;DHT22;23172;53.550;9.964;2023-03-14T00:22:19;12.50;97.10
37285;DHT22;23172;53.550;9.964;2023-03-14T00:27:21;12.50;97.30
37285;DHT22;23172;53.550;9.964;2023-03-14T00:32:25;12.50;97.30
37285;DHT22;23172;53.550;9.964;2023-03-14T00:37:27;12.50;97.40
37285;DHT22;23172;53.550;9.964;2023-03-14T00:42:29;12.50;97.40
37285;DHT22;23172;53.550;9.964;2023-03-14T00:47:34;12.40;97.40
37285;DHT22;23172;53.550;9.964;2023-03-14T00:52:35;12.40;97.40
37285;DHT22;23172;53.550;9.964;2023-03-14T00:57:37;12.40;97.50
37285;DHT22;23172;53.550;9.964;2023-03-14T01:02:41;12.40;97.50
37285;DHT22;23172;53.550;9.964;2023-03-14T01:07:43;12.50;97.50
37285;DHT22;23172;53.550;9.964;2023-03-14T01:12:44;12.50;97.50
37285;DHT22;23172;53.550;9.964;2023-03-14T01:17:48;12.50;97.50
37285;DHT22;23172;53.550;9.964;2023-03-14T01:22:50;12.50;97.50
37285;DHT22;23172;53.550;9.964;2023-03-14T01:27:52;12.50;97.50
37285;DHT22;23172;53.550;9.964;2023-03-14T01:32:55;12.50;97.60
37285;DHT22;23172;53.550;9.964;2023-03-14T01:37:57;12.60;97.50
37285;DHT22;23172;53.550;9.964;2023-03-14T01:43:12;12.60;97.40
37285;DHT22;23172;53.550;9.964;2023-03-14T01:48:16;12.50;97.40
37285;DHT22;23172;53.550;9.964;2023-03-14T01:53:18;12.50;97.40
37285;DHT22;23172;53.550;9.964;2023-03-14T01:58:27;12.50;97.50
37285;DHT22;23172;53.550;9.964;2023-03-14T02:03:35;12.50;97.50
37285;DHT22;23172;53.550;9.964;2023-03-14T02:08:39;12.50;97.60
37285;DHT22;23172;53.550;9.964;2023-03-14T02:13:42;12.50;97.60
37285;DHT22;23172;53.550;9.964;2023-03-14T02:18:45;12.50;97.70
37285;DHT22;23172;53.550;9.964;2023-03-14T02:23:52;12.40;97.70
37285;DHT22;23172;53.550;9.964;2023-03-14T02:28:58;12.40;97.70
37285;DHT22;23172;53.550;9.964;2023-03-14T02:34:01;12.40;97.70
37285;DHT22;23172;53.550;9.964;2023-03-14T02:39:08;12.30;97.70
37285;DHT22;23172;53.550;9.964;2023-03-14T02:44:12;12.30;97.70
37285;DHT22;23172;53.550;9.964;2023-03-14T02:49:14;12.30;97.70
37285;DHT22;23172;53.550;9.964;2023-03-14T02:54:19;12.30;97.80
37285;DHT22;23172;53.550;9.964;2023-03-14T02:59:23;12.30;97.90
37285;DHT22;23172;53.550;9.964;2023-03-14T03:04:25;12.30;97.90
37285;DHT22;23172;53.550;9.964;2023-03-14T03:09:27;12.30;97.90
37285;DHT22;23172;53.550;9.964;2023-03-14T03:14:30;12.40;98.00
37285;DHT22;23172;53.550;9.964;2023-03-14T03:19:33;12.40;97.90
37285;DHT22;23172;53.550;9.964;2023-03-14T03:24:36;12.40;97.90
37285;DHT22;23172;53.550;9.964;2023-03-14T03:29:39;12.40;97.90
37285;DHT22;23172;53.550;9.964;2023-03-14T03:34:41;12.40;97.90
37285;DHT22;23172;53.550;9.964;2023-03-14T03:39:43;12.50;97.90
37285;DHT22;23172;53.550;9.964;2023-03-14T03:44:46;12.50;97.80
37285;DHT22;23172;53.550;9.964;2023-03-14T03:49:49;12.60;97.70
37285;DHT22;23172;53.550;9.964;2023-03-14T03:54:50;12.60;97.60
37285;DHT22;23172;53.550;9.964;2023-03-14T03:59:54;12.60;97.60
37285;DHT22;23172;53.550;9.964;2023-03-14T04:04:56;12.50;97.60
37285;DHT22;23172;53.550;9.964;2023-03-14T04:09:57;12.50;97.60
37285;DHT22;23172;53.550;9.964;2023-03-14T04:15:01;12.50;97.70
37285;DHT22;23172;53.550;9.964;2023-03-14T04:20:04;12.40;97.70
37285;DHT22;23172;53.550;9.964;2023-03-14T04:25:09;12.40;97.60
37285;DHT22;23172;53.550;9.964;2023-03-14T04:30:12;12.40;97.60
37285;DHT22;23172;53.550;9.964;2023-03-14T04:35:14;12.40;97.60
37285;DHT22;23172;53.550;9.964;2023-03-14T04:40:16;12.30;97.70
37285;DHT22;23172;53.550;9.964;2023-03-14T04:45:20;12.30;97.60
37285;DHT22;23172;53.550;9.964;2023-03-14T04:50:24;12.30;97.60
37285;DHT22;23172;53.550;9.964;2023-03-14T04:55:26;12.30;97.70
37285;DHT22;23172;53.550;9.964;2023-03-14T05:00:29;12.30;97.70
37285;DHT22;23172;53.550;9.964;2023-03-14T05:05:31;12.30;97.60
37285;DHT22;23172;53.550;9.964;2023-03-14T05:10:33;12.40;97.60
37285;DHT22;23172;53.550;9.964;2023-03-14T05:15:37;12.40;97.50
37285;DHT22;23172;53.550;9.964;2023-03-14T05:20:39;12.40;97.60
37285;DHT22;23172;53.550;9.964;2023-03-14T05:25:43;12.30;98.40
37285;DHT22;23172;53.550;9.964;2023-03-14T05:30:46;12.10;99.20
37285;DHT22;23172;53.550;9.964;2023-03-14T05:35:48;11.90;99.60
37285;DHT22;23172;53.550;9.964;2023-03-14T05:40:50;11.80;99.90
37285;DHT22;23172;53.550;9.964;2023-03-14T05:45:53;11.70;99.90
37285;DHT22;23172;53.550;9.964;2023-03-14T05:50:55;11.70;99.90
37285;DHT22;23172;53.550;9.964;2023-03-14T05:55:57;11.70;99.90
37285;DHT22;23172;53.550;9.964;2023-03-14T06:01:03;11.80;99.90
37285;DHT22;23172;53.550;9.964;2023-03-14T06:06:06;11.80;99.90
37285;DHT22;23172;53.550;9.964;2023-03-14T06:11:08;11.80;99.90
37285;DHT22;23172;53.550;9.964;2023-03-14T06:16:12;11.90;99.90
37285;DHT22;23172;53.550;9.964;2023-03-14T06:21:14;11.90;99.90
37285;DHT22;23172;53.550;9.964;2023-03-14T06:26:16;11.90;99.90
37285;DHT22;23172;53.550;9.964;2023-03-14T06:31:20;11.80;99.90
37285;DHT22;23172;53.550;9.964;2023-03-14T06:36:22;11.80;99.90
37285;DHT22;23172;53.550;9.964;2023-03-14T06:41:24;11.70;99.90
37285;DHT22;23172;53.550;9.964;2023-03-14T06:46:27;11.70;99.90
37285;DHT22;23172;53.550;9.964;2023-03-14T06:51:29;11.70;99.90
37285;DHT22;23172;53.550;9.964;2023-03-14T06:56:31;11.70;99.90
37285;DHT22;23172;53.550;9.964;2023-03-14T07:01:34;11.70;99.90
37285;DHT22;23172;53.550;9.964;2023-03-14T07:06:36;11.70;99.90
37285;DHT22;23172;53.550;9.964;2023-03-14T07:11:40;11.70;99.90
37285;DHT22;23172;53.550;9.964;2023-03-14T07:16:43;11.80;99.90
37285;DHT22;23172;53.550;9.964;2023-03-14T07:21:45;11.80;99.80
37285;DHT22;23172;53.550;9.964;2023-03-14T07:26:47;12.00;99.60
37285;DHT22;23172;53.550;9.964;2023-03-14T07:31:51;12.10;99.20
37285;DHT22;23172;53.550;9.964;2023-03-14T07:36:52;12.20;99.10
37285;DHT22;23172;53.550;9.964;2023-03-14T07:41:54;12.30;99.00
37285;DHT22;23172;53.550;9.964;2023-03-14T07:46:58;12.50;99.00
37285;DHT22;23172;53.550;9.964;2023-03-14T07:52:00;12.60;98.70
37285;DHT22;23172;53.550;9.964;2023-03-14T07:57:02;12.60;98.40
37285;DHT22;23172;53.550;9.964;2023-03-14T08:02:07;12.70;98.10
37285;DHT22;23172;53.550;9.964;2023-03-14T08:07:12;12.70;98.00
37285;DHT22;23172;53.550;9.964;2023-03-14T08:12:14;12.60;97.90
37285;DHT22;23172;53.550;9.964;2023-03-14T08:17:17;12.70;97.80
37285;DHT22;23172;53.550;9.964;2023-03-14T08:22:20;13.00;97.50
37285;DHT22;23172;53.550;9.964;2023-03-14T08:27:21;13.10;96.90
37285;DHT22;23172;53.550;9.964;2023-03-14T08:32:25;13.00;96.70
37285;DHT22;23172;53.550;9.964;2023-03-14T08:37:27;12.90;96.80
37285;DHT22;23172;53.550;9.964;2023-03-14T08:42:29;13.00;96.80
37285;DHT22;23172;53.550;9.964;2023-03-14T08:47:32;13.10;96.70
37285;DHT22;23172;53.550;9.964;2023-03-14T08:52:35;13.30;96.40
37285;DHT22;23172;53.550;9.964;2023-03-14T08:57:38;13.30;96.40
37285;DHT22;23172;53.550;9.964;2023-03-14T09:02:42;13.20;96.30
37285;DHT22;23172;53.550;9.964;2023-03-14T09:07:44;13.20;96.50
37285;DHT22;23172;53.550;9.964;2023-03-14T09:12:46;13.10;96.50
37285;DHT22;23172;53.550;9.964;2023-03-14T09:17:49;13.10;96.90
37285;DHT22;23172;53.550;9.964;2023-03-14T09:22:51;13.10;96.80
37285;DHT22;23172;53.550;9.964;2023-03-14T09:27:53;13.00;96.80
37285;DHT22;23172;53.550;9.964;2023-03-14T09:32:56;13.10;96.90
37285;DHT22;23172;53.550;9.964;2023-03-14T09:37:59;13.00;96.90
37285;DHT22;23172;53.550;9.964;2023-03-14T09:43:01;12.90;97.30
37285;DHT22;23172;53.550;9.964;2023-03-14T09:48:05;12.90;97.70
37285;DHT22;23172;53.550;9.964;2023-03-14T09:53:12;12.90;98.10
37285;DHT22;23172;53.550;9.964;2023-03-14T09:58:19;12.90;98.40
37285;DHT22;23172;53.550;9.964;2023-03-14T10:03:26;12.50;97.80
37285;DHT22;23172;53.550;9.964;2023-03-14T10:08:30;12.10;98.00
37285;DHT22;23172;53.550;9.964;2023-03-14T10:13:32;11.80;98.00
37285;DHT22;23172;53.550;9.964;2023-03-14T10:18:36;11.50;97.80
37285;DHT22;23172;53.550;9.964;2023-03-14T10:23:38;11.20;97.80
37285;DHT22;23172;53.550;9.964;2023-03-14T10:28:43;10.80;98.00
37285;DHT22;23172;53.550;9.964;2023-03-14T10:33:58;10.60;98.10
37285;DHT22;23172;53.550;9.964;2023-03-14T10:39:22;10.50;97.80
37285;DHT22;23172;53.550;9.964;2023-03-14T10:44:26;10.10;97.60
37285;DHT22;23172;53.550;9.964;2023-03-14T10:49:34;9.80;97.40
37285;DHT22;23172;53.550;9.964;2023-03-14T10:54:36;9.30;96.90
37285;DHT22;23172;53.550;9.964;2023-03-14T10:59:40;9.10;97.20
37285;DHT22;23172;53.550;9.964;2023-03-14T11:04:57;9.00;97.00
37285;DHT22;23172;53.550;9.964;2023-03-14T11:10:14;8.80;96.70
37285;DHT22;23172;53.550;9.964;2023-03-14T11:15:24;8.70;96.30
37285;DHT22;23172;53.550;9.964;2023-03-14T11:20:35;8.60;96.40
37285;DHT22;23172;53.550;9.964;2023-03-14T11:25:45;8.50;96.00
37285;DHT22;23172;53.550;9.964;2023-03-14T11:30:52;8.40;95.80
37285;DHT22;23172;53.550;9.964;2023-03-14T11:35:59;8.20;95.50
37285;DHT22;23172;53.550;9.964;2023-03-14T11:41:04;7.90;95.40
37285;DHT22;23172;53.550;9.964;2023-03-14T11:46:14;8.00;95.50
37285;DHT22;23172;53.550;9.964;2023-03-14T11:51:22;8.10;95.00
37285;DHT22;23172;53.550;9.964;2023-03-14T11:56:29;8.60;94.90
37285;DHT22;23172;53.550;9.964;2023-03-14T12:01:47;8.80;94.00
37285;DHT22;23172;53.550;9.964;2023-03-14T12:06:52;9.00;93.50
37285;DHT22;23172;53.550;9.964;2023-03-14T12:11:56;8.90;92.10
37285;DHT22;23172;53.550;9.964;2023-03-14T12:17:05;8.90;92.30
37285;DHT22;23172;53.550;9.964;2023-03-14T12:22:28;9.00;91.70
37285;DHT22;23172;53.550;9.964;2023-03-14T12:27:50;8.90;91.10
37285;DHT22;23172;53.550;9.964;2023-03-14T12:33:21;8.90;90.70
37285;DHT22;23172;53.550;9.964;2023-03-14T12:38:41;8.90;91.10
37285;DHT22;23172;53.550;9.964;2023-03-14T12:43:44;9.10;90.90
37285;DHT22;23172;53.550;9.964;2023-03-14T12:48:48;9.00;90.80
37285;DHT22;23172;53.550;9.964;2023-03-14T12:54:23;9.00;90.40
37285;DHT22;23172;53.550;9.964;2023-03-14T12:59:32;9.00;90.60
37285;DHT22;23172;53.550;9.964;2023-03-14T13:04:35;9.00;90.80
37285;DHT22;23172;53.550;9.964;2023-03-14T13:10:02;9.00;91.60
37285;DHT22;23172;53.550;9.964;2023-03-14T13:15:17;9.10;92.00
37285;DHT22;23172;53.550;9.964;2023-03-14T13:20:27;9.30;92.10
37285;DHT22;23172;53.550;9.964;2023-03-14T13:25:32;9.50;91.90
37285;DHT22;23172;53.550;9.964;2023-03-14T13:30:40;9.60;88.60
37285;DHT22;23172;53.550;9.964;2023-03-14T13:35:44;9.70;84.70
37285;DHT22;23172;53.550;9.964;2023-03-14T13:40:49;9.90;81.00
37285;DHT22;23172;53.550;9.964;2023-03-14T13:45:53;9.90;76.40
37285;DHT22;23172;53.550;9.964;2023-03-14T13:50:59;9.80;70.60
37285;DHT22;23172;53.550;9.964;2023-03-14T13:56:04;9.60;68.40
37285;DHT22;23172;53.550;9.964;2023-03-14T14:01:13;9.60;67.70
37285;DHT22;23172;53.550;9.964;2023-03-14T14:06:26;9.90;66.80
37285;DHT22;23172;53.550;9.964;2023-03-14T14:11:38;9.60;65.50
37285;DHT22;23172;53.550;9.964;2023-03-14T14:16:43;9.50;66.50
37285;DHT22;23172;53.550;9.964;2023-03-14T14:21:46;9.40;67.50
37285;DHT22;23172;53.550;9.964;2023-03-14T14:26:50;9.40;66.50
37285;DHT22;23172;53.550;9.964;2023-03-14T14:32:03;9.50;64.60
37285;DHT22;23172;53.550;9.964;2023-03-14T14:37:21;9.50;64.00
37285;DHT22;23172;53.550;9.964;2023-03-14T14:42:28;9.70;63.40
37285;DHT22;23172;53.550;9.964;2023-03-14T14:47:30;9.80;62.70
37285;DHT22;23172;53.550;9.964;2023-03-14T14:52:37;9.60;61.10
37285;DHT22;23172;53.550;9.964;2023-03-14T14:57:49;9.60;60.10
37285;DHT22;23172;53.550;9.964;2023-03-14T15:02:52;9.50;57.60
37285;DHT22;23172;53.550;9.964;2023-03-14T15:07:55;9.30;57.70
37285;DHT22;23172;53.550;9.964;2023-03-14T15:12:59;9.00;58.40
37285;DHT22;23172;53.550;9.964;2023-03-14T15:18:01;9.10;59.50
37285;DHT22;23172;53.550;9.964;2023-03-14T15:23:04;8.90;59.70
37285;DHT22;23172;53.550;9.964;2023-03-14T15:28:14;8.80;60.70
37285;DHT22;23172;53.550;9.964;2023-03-14T15:33:17;8.90;61.70
37285;DHT22;23172;53.550;9.964;2023-03-14T15:38:21;8.90;62.20
37285;DHT22;23172;53.550;9.964;2023-03-14T15:43:25;9.10;62.70
37285;DHT22;23172;53.550;9.964;2023-03-14T15:48:26;9.10;61.60
37285;DHT22;23172;53.550;9.964;2023-03-14T15:53:29;9.00;61.20
37285;DHT22;23172;53.550;9.964;2023-03-14T15:58:32;8.90;61.20
37285;DHT22;23172;53.550;9.964;2023-03-14T16:03:35;8.80;60.50
37285;DHT22;23172;53.550;9.964;2023-03-14T16:08:37;8.80;60.30
37285;DHT22;23172;53.550;9.964;2023-03-14T16:13:40;8.70;60.40
37285;DHT22;23172;53.550;9.964;2023-03-14T16:18:42;8.60;60.70
37285;DHT22;23172;53.550;9.964;2023-03-14T16:23:44;8.50;60.00
37285;DHT22;23172;53.550;9.964;2023-03-14T16:28:50;8.40;59.80
37285;DHT22;23172;53.550;9.964;2023-03-14T16:33:53;8.20;59.80
37285;DHT22;23172;53.550;9.964;2023-03-14T16:38:55;8.20;60.80
37285;DHT22;23172;53.550;9.964;2023-03-14T16:43:58;8.10;61.00
37285;DHT22;23172;53.550;9.964;2023-03-14T16:49:01;7.90;61.40
37285;DHT22;23172;53.550;9.964;2023-03-14T16:54:03;7.70;61.50
37285;DHT22;23172;53.550;9.964;2023-03-14T16:59:06;7.70;61.90
37285;DHT22;23172;53.550;9.964;2023-03-14T17:04:08;7.60;62.10
37285;DHT22;23172;53.550;9.964;2023-03-14T17:09:11;7.60;61.90
37285;DHT22;23172;53.550;9.964;2023-03-14T17:14:14;7.50;61.80
37285;DHT22;23172;53.550;9.964;2023-03-14T17:19:16;7.50;62.00
37285;DHT22;23172;53.550;9.964;2023-03-14T17:24:17;7.40;62.20
37285;DHT22;23172;53.550;9.964;2023-03-14T17:29:21;7.30;62.20
37285;DHT22;23172;53.550;9.964;2023-03-14T17:34:23;7.30;62.70
37285;DHT22;23172;53.550;9.964;2023-03-14T17:39:25;7.10;63.80
37285;DHT22;23172;53.550;9.964;2023-03-14T17:44:28;7.00;64.80
37285;DHT22;23172;53.550;9.964;2023-03-14T17:49:31;6.90;65.80
37285;DHT22;23172;53.550;9.964;2023-03-14T17:54:33;6.90;66.40
37285;DHT22;23172;53.550;9.964;2023-03-14T17:59:36;6.90;66.60
37285;DHT22;23172;53.550;9.964;2023-03-14T18:04:38;6.90;66.80
37285;DHT22;23172;53.550;9.964;2023-03-14T18:09:40;6.90;66.90
37285;DHT22;23172;53.550;9.964;2023-03-14T18:14:44;6.90;66.90
37285;DHT22;23172;53.550;9.964;2023-03-14T18:19:45;6.80;67.20
37285;DHT22;23172;53.550;9.964;2023-03-14T18:24:47;6.90;67.70
37285;DHT22;23172;53.550;9.964;2023-03-14T18:29:50;6.90;67.90
37285;DHT22;23172;53.550;9.964;2023-03-14T18:34:52;6.90;68.20
37285;DHT22;23172;53.550;9.964;2023-03-14T18:39:54;7.00;68.80
37285;DHT22;23172;53.550;9.964;2023-03-14T18:44:57;6.80;70.60
37285;DHT22;23172;53.550;9.964;2023-03-14T18:49:59;6.80;72.10
37285;DHT22;23172;53.550;9.964;2023-03-14T18:55:02;6.60;74.00
37285;DHT22;23172;53.550;9.964;2023-03-14T19:00:07;6.50;75.50
37285;DHT22;23172;53.550;9.964;2023-03-14T19:05:10;6.40;76.20
37285;DHT22;23172;53.550;9.964;2023-03-14T19:10:12;6.40;80.50
37285;DHT22;23172;53.550;9.964;2023-03-14T19:15:16;6.40;76.80
37285;DHT22;23172;53.550;9.964;2023-03-14T19:20:18;6.40;77.20
37285;DHT22;23172;53.550;9.964;2023-03-14T19:25:20;6.40;77.90
37285;DHT22;23172;53.550;9.964;2023-03-14T19:30:23;6.30;79.10
37285;DHT22;23172;53.550;9.964;2023-03-14T19:35:25;6.20;80.30
37285;DHT22;23172;53.550;9.964;2023-03-14T19:40:26;6.20;81.30
37285;DHT22;23172;53.550;9.964;2023-03-14T19:45:30;6.10;81.90
37285;DHT22;23172;53.550;9.964;2023-03-14T19:50:33;6.00;82.60
37285;DHT22;23172;53.550;9.964;2023-03-14T19:55:35;5.90;83.50
37285;DHT22;23172;53.550;9.964;2023-03-14T20:00:39;5.80;84.00
37285;DHT22;23172;53.550;9.964;2023-03-14T20:05:41;5.70;84.70
37285;DHT22;23172;53.550;9.964;2023-03-14T20:10:44;5.80;84.50
37285;DHT22;23172;53.550;9.964;2023-03-14T20:15:48;6.00;84.60
37285;DHT22;23172;53.550;9.964;2023-03-14T20:20:52;5.90;85.00
37285;DHT22;23172;53.550;9.964;2023-03-14T20:25:54;5.90;85.20
37285;DHT22;23172;53.550;9.964;2023-03-14T20:30:57;5.80;88.70
37285;DHT22;23172;53.550;9.964;2023-03-14T20:36:00;5.70;90.50
37285;DHT22;23172;53.550;9.964;2023-03-14T20:41:02;5.70;91.10
37285;DHT22;23172;53.550;9.964;2023-03-14T20:46:06;5.70;91.40
37285;DHT22;23172;53.550;9.964;2023-03-14T20:51:08;5.60;92.20
37285;DHT22;23172;53.550;9.964;2023-03-14T20:56:11;5.30;92.80
37285;DHT22;23172;53.550;9.964;2023-03-14T21:06:17;5.20;93.80
37285;DHT22;23172;53.550;9.964;2023-03-14T21:11:19;5.20;93.50
37285;DHT22;23172;53.550;9.964;2023-03-14T21:16:22;5.00;93.70
37285;DHT22;23172;53.550;9.964;2023-03-14T21:21:24;5.00;94.00
37285;DHT22;23172;53.550;9.964;2023-03-14T21:26:25;4.90;94.30
37285;DHT22;23172;53.550;9.964;2023-03-14T21:31:29;4.80;94.60
37285;DHT22;23172;53.550;9.964;2023-03-14T21:36:31;4.80;94.80
37285;DHT22;23172;53.550;9.964;2023-03-14T21:41:33;4.60;95.20
37285;DHT22;23172;53.550;9.964;2023-03-14T21:46:36;4.60;95.30
37285;DHT22;23172;53.550;9.964;2023-03-14T21:51:38;4.70;95.20
37285;DHT22;23172;53.550;9.964;2023-03-14T21:56:40;4.70;95.60
37285;DHT22;23172;53.550;9.964;2023-03-14T22:01:44;4.60;95.40
37285;DHT22;23172;53.550;9.964;2023-03-14T22:06:45;4.50;95.60
37285;DHT22;23172;53.550;9.964;2023-03-14T22:11:47;4.50;95.70
37285;DHT22;23172;53.550;9.964;2023-03-14T22:16:50;4.50;95.70
37285;DHT22;23172;53.550;9.964;2023-03-14T22:21:53;5.10;95.60
37285;DHT22;23172;53.550;9.964;2023-03-14T22:26:55;4.90;95.60
37285;DHT22;23172;53.550;9.964;2023-03-14T22:31:58;4.90;95.70
37285;DHT22;23172;53.550;9.964;2023-03-14T22:37:02;4.90;95.60
37285;DHT22;23172;53.550;9.964;2023-03-14T22:42:04;4.80;95.50
37285;DHT22;23172;53.550;9.964;2023-03-14T22:47:07;4.70;95.70
37285;DHT22;23172;53.550;9.964;2023-03-14T22:52:09;4.70;96.00
37285;DHT22;23172;53.550;9.964;2023-03-14T22:57:11;4.60;95.90
37285;DHT22;23172;53.550;9.964;2023-03-14T23:02:14;4.50;95.70
37285;DHT22;23172;53.550;9.964;2023-03-14T23:07:16;4.40;95.70
37285;DHT22;23172;53.550;9.964;2023-03-14T23:12:18;4.30;95.60
37285;DHT22;23172;53.550;9.964;2023-03-14T23:17:22;4.80;95.20
37285;DHT22;23172;53.550;9.964;2023-03-14T23:22:25;4.70;95.30
37285;DHT22;23172;53.550;9.964;2023-03-14T23:27:27;4.60;95.40
37285;DHT22;23172;53.550;9.964;2023-03-14T23:32:30;4.50;95.40
37285;DHT22;23172;53.550;9.964;2023-03-14T23:37:32;4.40;95.40
37285;DHT22;23172;53.550;9.964;2023-03-14T23:42:34;4.30;95.50
37285;DHT22;23172;53.550;9.964;2023-03-14T23:47:38;4.30;95.70
37285;DHT22;23172;53.550;9.964;2023-03-14T23:52:40;4.20;95.80
37285;DHT22;23172;53.550;9.964;2023-03-14T23:57:42;4.10;95.90
